Time;durP1;ratioP1;P1;durP2;ratioP2;P2;SDS_P1;SDS_P2;PMS_P1;PMS_P2;Temp;Humidity;BMP_temperature;BMP_pressure;BME280_temperature;BME280_humidity;BME280_pressure;Samples;Min_cycle;Max_cycle;Signal;HPM_P1;HPM_P2
2022/11/21 00:00:45;;;;;;;12.50;8.23;;;;;;;;;;1763406;79;21591;-45
2022/11/21 00:03:12;;;;;;;11.83;7.87;;;;;;;;;;1768344;79;21851;-45
2022/11/21 00:05:42;;;;;;;9.37;7.43;;;;;;;;;;1763151;79;21034;-45
2022/11/21 00:08:10;;;;;;;10.80;8.50;;;;;;;;;;1761261;80;21080;-44
2022/11/21 00:10:37;;;;;;;10.53;8.43;;;;;;;;;;1769167;79;21125;-44
2022/11/21 00:13:04;;;;;;;12.27;9.07;;;;;;;;;;1763862;79;21076;-47
2022/11/21 00:15:30;;;;;;;13.83;8.97;;;;;;;;;;1761927;79;21842;-46
2022/11/21 00:17:57;;;;;;;13.10;9.63;;;;;;;;;;1764163;79;21593;-45
2022/11/21 00:20:23;;;;;;;11.63;8.67;;;;;;;;;;1766010;79;21613;-44
2022/11/21 00:22:50;;;;;;;12.87;9.80;;;;;;;;;;1764885;80;21029;-47
2022/11/21 00:25:17;;;;;;;12.53;9.07;;;;;;;;;;1765713;80;21056;-46
2022/11/21 00:27:44;;;;;;;13.40;9.90;;;;;;;;;;1765565;80;21871;-45
2022/11/21 00:30:11;;;;;;;10.93;8.27;;;;;;;;;;1762622;80;20982;-45
2022/11/21 00:32:38;;;;;;;10.80;8.67;;;;;;;;;;1765164;79;22400;-45
2022/11/21 00:35:05;;;;;;;12.73;9.03;;;;;;;;;;1767026;79;21065;-44
2022/11/21 00:37:32;;;;;;;15.83;11.23;;;;;;;;;;1763954;80;21045;-46
2022/11/21 00:39:59;;;;;;;12.93;9.37;;;;;;;;;;1767956;79;21515;-46
2022/11/21 00:42:26;;;;;;;16.13;10.87;;;;;;;;;;1766673;79;21059;-45
2022/11/21 00:44:53;;;;;;;15.80;11.70;;;;;;;;;;1767402;80;21549;-47
2022/11/21 00:47:19;;;;;;;15.73;10.37;;;;;;;;;;1767434;79;21039;-47
2022/11/21 00:49:45;;;;;;;14.33;9.93;;;;;;;;;;1762445;79;21041;-46
2022/11/21 00:54:45;;;;;;;13.90;9.73;;;;;;;;;;1864430;74;27361;-44
2022/11/21 00:57:12;;;;;;;11.53;9.43;;;;;;;;;;1830607;76;21079;-44
2022/11/21 00:59:38;;;;;;;10.60;8.67;;;;;;;;;;1830488;76;21831;-44
2022/11/21 01:02:04;;;;;;;12.43;8.23;;;;;;;;;;1830676;76;21025;-44
2022/11/21 01:04:32;;;;;;;14.20;8.50;;;;;;;;;;1826780;77;21150;-46
2022/11/21 01:06:58;;;;;;;13.17;8.87;;;;;;;;;;1806386;77;21120;-44
2022/11/21 01:09:24;;;;;;;10.57;8.00;;;;;;;;;;1805937;77;21029;-46
2022/11/21 01:11:50;;;;;;;13.30;8.83;;;;;;;;;;1807077;77;21754;-43
2022/11/21 01:14:17;;;;;;;11.23;9.00;;;;;;;;;;1806668;77;21005;-45
2022/11/21 01:16:43;;;;;;;10.80;8.43;;;;;;;;;;1805713;77;21616;-45
2022/11/21 01:19:09;;;;;;;13.53;8.80;;;;;;;;;;1807028;77;21077;-43
2022/11/21 01:21:36;;;;;;;13.50;8.50;;;;;;;;;;1810071;77;21089;-43
2022/11/21 01:24:03;;;;;;;11.20;8.80;;;;;;;;;;1813396;77;21815;-44
2022/11/21 01:26:31;;;;;;;14.50;8.67;;;;;;;;;;1807673;77;21068;-44
2022/11/21 01:28:58;;;;;;;16.17;10.27;;;;;;;;;;1804941;77;21498;-47
2022/11/21 01:31:26;;;;;;;13.90;9.93;;;;;;;;;;1806638;77;21045;-46
2022/11/21 01:33:52;;;;;;;15.87;10.33;;;;;;;;;;1814407;77;21124;-44
2022/11/21 01:36:20;;;;;;;14.73;9.97;;;;;;;;;;1804887;77;21825;-46
2022/11/21 01:38:48;;;;;;;13.47;9.03;;;;;;;;;;1807713;78;21368;-44
2022/11/21 01:41:17;;;;;;;12.50;9.50;;;;;;;;;;1805719;77;21056;-44
2022/11/21 01:43:44;;;;;;;13.47;10.57;;;;;;;;;;1804851;77;21061;-44
2022/11/21 01:46:11;;;;;;;17.87;11.23;;;;;;;;;;1807408;77;21033;-45
2022/11/21 01:48:44;;;;;;;14.83;11.47;;;;;;;;;;1805786;77;21248;-46
2022/11/21 01:51:26;;;;;;;16.33;10.30;;;;;;;;;;1809100;77;21013;-44
2022/11/21 01:53:55;;;;;;;16.87;10.93;;;;;;;;;;1805037;77;21025;-47
2022/11/21 01:56:22;;;;;;;16.33;11.03;;;;;;;;;;1809800;77;21521;-45
2022/11/21 01:58:48;;;;;;;15.03;10.83;;;;;;;;;;1809460;77;21025;-44
2022/11/21 02:01:14;;;;;;;15.57;10.90;;;;;;;;;;1807504;77;21833;-45
2022/11/21 02:03:42;;;;;;;18.07;11.43;;;;;;;;;;1808713;77;21024;-46
2022/11/21 02:06:10;;;;;;;18.37;11.23;;;;;;;;;;1805262;77;21004;-44
2022/11/21 02:08:37;;;;;;;14.00;10.27;;;;;;;;;;1809878;77;21476;-46
2022/11/21 02:11:07;;;;;;;16.20;10.90;;;;;;;;;;1806523;77;21088;-45
2022/11/21 02:13:34;;;;;;;14.97;9.23;;;;;;;;;;1808434;77;21933;-46
2022/11/21 02:16:01;;;;;;;14.33;9.70;;;;;;;;;;1807201;77;21060;-45
2022/11/21 02:18:27;;;;;;;14.87;9.87;;;;;;;;;;1814369;77;21071;-44
2022/11/21 02:20:57;;;;;;;15.40;10.60;;;;;;;;;;1809166;77;21039;-44
2022/11/21 02:23:30;;;;;;;15.40;10.50;;;;;;;;;;1805894;77;21045;-44
2022/11/21 02:25:56;;;;;;;16.47;10.40;;;;;;;;;;1809513;77;22521;-44
2022/11/21 02:28:23;;;;;;;13.43;9.07;;;;;;;;;;1809797;77;21478;-45
2022/11/21 02:30:52;;;;;;;16.07;10.50;;;;;;;;;;1811444;77;21034;-47
2022/11/21 02:33:19;;;;;;;16.30;10.53;;;;;;;;;;1808799;78;21041;-47
2022/11/21 02:35:57;;;;;;;12.70;8.83;;;;;;;;;;1806067;77;21053;-47
2022/11/21 02:38:29;;;;;;;16.30;10.80;;;;;;;;;;1808199;77;21808;-47
2022/11/21 02:41:08;;;;;;;18.77;11.53;;;;;;;;;;1804623;77;21511;-46
2022/11/21 02:43:44;;;;;;;17.33;12.00;;;;;;;;;;1809068;77;21073;-47
2022/11/21 02:46:10;;;;;;;17.27;11.27;;;;;;;;;;1811761;77;21191;-46
2022/11/21 02:48:37;;;;;;;18.63;11.73;;;;;;;;;;1809054;77;21099;-47
2022/11/21 02:51:03;;;;;;;15.50;10.20;;;;;;;;;;1806323;77;23314;-47
2022/11/21 02:53:30;;;;;;;15.93;11.27;;;;;;;;;;1808271;77;21564;-47
2022/11/21 02:55:56;;;;;;;18.93;11.20;;;;;;;;;;1814547;77;21077;-45
2022/11/21 02:58:22;;;;;;;23.87;11.83;;;;;;;;;;1803578;77;21128;-45
2022/11/21 03:00:48;;;;;;;23.30;14.40;;;;;;;;;;1806505;77;21423;-47
2022/11/21 03:03:14;;;;;;;19.77;12.77;;;;;;;;;;1808003;77;21769;-44
2022/11/21 03:05:41;;;;;;;19.67;11.73;;;;;;;;;;1764980;79;21597;-46
2022/11/21 03:08:07;;;;;;;14.90;9.97;;;;;;;;;;1803572;77;21049;-48
2022/11/21 03:10:34;;;;;;;16.07;11.30;;;;;;;;;;1803801;77;22204;-45
2022/11/21 03:13:00;;;;;;;16.70;10.93;;;;;;;;;;1805449;77;21683;-45
2022/11/21 03:15:30;;;;;;;21.43;12.93;;;;;;;;;;1802256;77;21860;-45
2022/11/21 03:17:56;;;;;;;26.57;14.13;;;;;;;;;;1802267;77;21055;-45
2022/11/21 03:20:22;;;;;;;24.50;14.10;;;;;;;;;;1803877;77;21069;-45
2022/11/21 03:22:52;;;;;;;19.70;12.90;;;;;;;;;;1806151;77;21486;-45
2022/11/21 03:25:19;;;;;;;19.17;11.87;;;;;;;;;;1804781;77;21394;-45
2022/11/21 03:27:45;;;;;;;21.83;13.30;;;;;;;;;;1807340;77;21834;-44
2022/11/21 03:30:12;;;;;;;20.07;13.33;;;;;;;;;;1803438;77;21049;-46
2022/11/21 03:32:39;;;;;;;21.30;14.20;;;;;;;;;;1805531;77;21080;-47
2022/11/21 03:35:06;;;;;;;19.50;12.00;;;;;;;;;;1807920;77;21609;-46
2022/11/21 03:37:34;;;;;;;21.30;13.03;;;;;;;;;;1804962;77;20980;-45
2022/11/21 03:40:00;;;;;;;17.10;11.67;;;;;;;;;;1809114;77;21805;-46
2022/11/21 03:42:26;;;;;;;18.47;12.10;;;;;;;;;;1801568;77;21074;-46
2022/11/21 03:44:53;;;;;;;16.93;11.63;;;;;;;;;;1806210;77;21045;-46
2022/11/21 03:47:19;;;;;;;15.07;9.93;;;;;;;;;;1804332;77;21743;-45
2022/11/21 03:49:45;;;;;;;16.43;11.10;;;;;;;;;;1809204;77;21026;-48
2022/11/21 03:52:12;;;;;;;21.93;12.73;;;;;;;;;;1807612;77;21902;-46
2022/11/21 03:54:38;;;;;;;15.03;11.20;;;;;;;;;;1808242;77;21052;-45
2022/11/21 03:57:04;;;;;;;16.50;11.27;;;;;;;;;;1807537;77;21554;-45
2022/11/21 03:59:30;;;;;;;15.93;11.30;;;;;;;;;;1806888;77;21031;-45
2022/11/21 04:01:56;;;;;;;16.60;11.33;;;;;;;;;;1806156;77;21064;-45
2022/11/21 04:04:23;;;;;;;24.03;13.00;;;;;;;;;;1805624;77;22504;-47
2022/11/21 04:06:49;;;;;;;20.37;12.83;;;;;;;;;;1810073;77;21293;-45
2022/11/21 04:09:15;;;;;;;23.97;11.93;;;;;;;;;;1809003;77;21062;-46
2022/11/21 04:11:43;;;;;;;20.83;11.30;;;;;;;;;;1805227;77;21064;-45
2022/11/21 04:14:09;;;;;;;16.03;10.93;;;;;;;;;;1806431;78;21024;-44
2022/11/21 04:16:36;;;;;;;18.60;10.90;;;;;;;;;;1805770;77;22044;-47
2022/11/21 04:19:02;;;;;;;17.77;11.80;;;;;;;;;;1807353;77;21036;-46
2022/11/21 04:21:28;;;;;;;18.83;12.10;;;;;;;;;;1804787;77;21092;-45
2022/11/21 04:23:55;;;;;;;16.70;11.13;;;;;;;;;;1806867;78;21563;-46
2022/11/21 04:26:21;;;;;;;18.73;12.07;;;;;;;;;;1810723;77;21010;-47
2022/11/21 04:28:47;;;;;;;17.10;10.53;;;;;;;;;;1807353;77;21862;-46
2022/11/21 04:31:14;;;;;;;19.27;12.77;;;;;;;;;;1804408;77;22003;-45
2022/11/21 04:33:40;;;;;;;16.93;10.63;;;;;;;;;;1805828;77;21018;-45
2022/11/21 04:36:06;;;;;;;18.00;11.20;;;;;;;;;;1811482;77;21070;-47
2022/11/21 04:38:33;;;;;;;13.77;7.73;;;;;;;;;;1805604;77;21609;-45
2022/11/21 04:40:59;;;;;;;12.27;9.30;;;;;;;;;;1810250;77;22517;-46
2022/11/21 04:43:25;;;;;;;14.97;8.93;;;;;;;;;;1808947;77;21097;-47
2022/11/21 04:45:51;;;;;;;14.97;8.73;;;;;;;;;;1811269;77;21565;-47
2022/11/21 04:48:18;;;;;;;14.33;9.40;;;;;;;;;;1810603;77;21061;-48
2022/11/21 04:50:44;;;;;;;13.37;8.43;;;;;;;;;;1808113;77;21070;-47
2022/11/21 04:53:10;;;;;;;12.33;8.33;;;;;;;;;;1809848;78;23043;-45
2022/11/21 04:55:36;;;;;;;11.43;8.13;;;;;;;;;;1808373;77;21475;-47
2022/11/21 04:58:02;;;;;;;12.37;7.20;;;;;;;;;;1806756;77;21064;-45
2022/11/21 05:00:29;;;;;;;10.30;6.90;;;;;;;;;;1806590;77;21037;-46
2022/11/21 05:05:16;;;;;;;13.80;8.93;;;;;;;;;;1855331;75;27294;-45
2022/11/21 05:07:42;;;;;;;19.00;12.03;;;;;;;;;;1828542;77;21535;-44
2022/11/21 05:10:09;;;;;;;21.47;12.37;;;;;;;;;;1826097;76;21913;-45
2022/11/21 05:15:22;;;;;;;19.57;12.23;;;;;;;;;;1819249;76;21036;-45
2022/11/21 05:17:48;;;;;;;21.47;13.80;;;;;;;;;;1818717;77;21021;-45
2022/11/21 05:20:17;;;;;;;21.43;13.77;;;;;;;;;;1822714;76;21022;-45
2022/11/21 05:22:48;;;;;;;22.83;13.97;;;;;;;;;;1828170;76;22249;-45
2022/11/21 05:25:12;;;;;;;22.60;14.60;;;;;;;;;;1820145;76;21562;-46
2022/11/21 05:27:38;;;;;;;23.23;13.97;;;;;;;;;;1825678;76;21581;-46
2022/11/21 05:30:05;;;;;;;20.07;12.13;;;;;;;;;;1830092;77;21006;-46
2022/11/21 05:32:31;;;;;;;21.33;12.73;;;;;;;;;;1834825;77;21535;-46
2022/11/21 05:34:57;;;;;;;27.90;14.90;;;;;;;;;;1825869;76;21831;-45
2022/11/21 05:37:24;;;;;;;19.87;12.17;;;;;;;;;;1826571;77;21056;-44
2022/11/21 05:39:50;;;;;;;20.57;13.13;;;;;;;;;;1831449;77;21403;-45
2022/11/21 05:43:44;;;;;;;21.80;13.20;;;;;;;;;;1823569;77;21442;-46
2022/11/21 05:44:44;;;;;;;21.93;13.57;;;;;;;;;;1824989;76;21053;-45
2022/11/21 05:47:11;;;;;;;28.20;15.27;;;;;;;;;;1826879;77;21923;-44
2022/11/21 05:49:37;;;;;;;25.27;15.67;;;;;;;;;;1827696;76;21386;-45
2022/11/21 05:52:04;;;;;;;25.27;14.17;;;;;;;;;;1825991;76;21206;-46
2022/11/21 05:54:30;;;;;;;21.30;12.97;;;;;;;;;;1828044;76;22592;-47
2022/11/21 05:56:56;;;;;;;22.67;12.87;;;;;;;;;;1824658;77;21045;-46
2022/11/21 05:59:22;;;;;;;23.47;13.23;;;;;;;;;;1831266;77;21817;-45
2022/11/21 06:04:34;;;;;;;23.65;15.03;;;;;;;;;;1823103;76;21041;-46
2022/11/21 06:07:00;;;;;;;23.30;13.70;;;;;;;;;;1830360;77;21483;-48
2022/11/21 06:09:26;;;;;;;25.53;15.23;;;;;;;;;;1820730;76;21056;-49
2022/11/21 06:11:53;;;;;;;22.30;14.67;;;;;;;;;;1776012;78;21834;-47
2022/11/21 06:14:19;;;;;;;21.60;12.23;;;;;;;;;;1759616;79;21076;-48
2022/11/21 06:16:46;;;;;;;20.73;13.27;;;;;;;;;;1750929;80;22567;-47
2022/11/21 06:19:14;;;;;;;24.20;13.33;;;;;;;;;;1748656;80;21536;-46
2022/11/21 06:21:41;;;;;;;27.13;15.53;;;;;;;;;;1759336;79;21040;-47
2022/11/21 06:24:08;;;;;;;25.67;15.87;;;;;;;;;;1752995;80;21821;-47
2022/11/21 06:26:34;;;;;;;21.87;12.53;;;;;;;;;;1757073;80;21549;-45
2022/11/21 06:30:45;;;;;;;22.77;14.07;;;;;;;;;;1758738;79;28365;-48
2022/11/21 06:33:11;;;;;;;21.37;12.80;;;;;;;;;;1735432;80;21522;-47
2022/11/21 06:35:38;;;;;;;22.57;13.50;;;;;;;;;;1737257;81;23838;-46
2022/11/21 06:38:05;;;;;;;19.40;12.40;;;;;;;;;;1730475;80;21058;-48
2022/11/21 06:40:31;;;;;;;25.57;14.23;;;;;;;;;;1741635;81;21093;-48
2022/11/21 06:42:57;;;;;;;22.17;13.67;;;;;;;;;;1736142;80;21551;-49
2022/11/21 06:45:23;;;;;;;21.03;12.33;;;;;;;;;;1735667;81;21109;-46
2022/11/21 06:47:50;;;;;;;21.30;12.30;;;;;;;;;;1738442;81;21863;-47
2022/11/21 06:50:16;;;;;;;19.10;11.33;;;;;;;;;;1739111;81;21061;-46
2022/11/21 06:52:43;;;;;;;27.17;14.10;;;;;;;;;;1734757;81;22776;-46
2022/11/21 06:55:09;;;;;;;25.80;14.07;;;;;;;;;;1737223;80;21110;-48
2022/11/21 06:57:36;;;;;;;21.40;13.70;;;;;;;;;;1734348;81;21043;-48
2022/11/21 07:00:03;;;;;;;21.93;13.73;;;;;;;;;;1739306;81;21849;-46
2022/11/21 07:02:29;;;;;;;23.53;14.87;;;;;;;;;;1736210;80;21333;-48
2022/11/21 07:04:55;;;;;;;24.87;15.07;;;;;;;;;;1731771;80;21081;-46
2022/11/21 07:07:22;;;;;;;24.73;15.20;;;;;;;;;;1715713;81;21135;-47
2022/11/21 07:09:48;;;;;;;20.57;12.37;;;;;;;;;;1710321;81;21068;-47
2022/11/21 07:14:51;;;;;;;25.03;14.37;;;;;;;;;;1664873;84;21100;-49
2022/11/21 07:17:17;;;;;;;20.73;12.43;;;;;;;;;;1721902;81;21542;-47
2022/11/21 07:19:44;;;;;;;24.27;12.80;;;;;;;;;;1723086;81;21068;-47
2022/11/21 07:22:11;;;;;;;25.47;14.13;;;;;;;;;;1714973;81;21081;-48
2022/11/21 07:24:38;;;;;;;24.53;13.23;;;;;;;;;;1720912;81;23279;-49
2022/11/21 07:27:04;;;;;;;29.37;15.17;;;;;;;;;;1715042;81;21454;-48
2022/11/21 07:29:31;;;;;;;26.40;15.93;;;;;;;;;;1714910;81;21533;-47
2022/11/21 07:31:57;;;;;;;28.93;15.30;;;;;;;;;;1720497;82;21033;-48
2022/11/21 07:34:23;;;;;;;31.80;15.67;;;;;;;;;;1718455;82;21133;-50
2022/11/21 07:36:49;;;;;;;31.37;16.83;;;;;;;;;;1719618;82;22649;-49
2022/11/21 07:39:15;;;;;;;26.10;13.97;;;;;;;;;;1717435;81;21537;-47
2022/11/21 07:41:43;;;;;;;28.77;15.13;;;;;;;;;;1718694;82;21099;-47
2022/11/21 07:44:09;;;;;;;28.03;14.70;;;;;;;;;;1712757;82;21118;-50
2022/11/21 07:46:35;;;;;;;30.17;14.80;;;;;;;;;;1719429;82;21013;-48
2022/11/21 07:49:01;;;;;;;32.13;16.53;;;;;;;;;;1718241;82;21953;-47
2022/11/21 07:51:27;;;;;;;34.53;16.97;;;;;;;;;;1717569;82;21040;-49
2022/11/21 07:53:53;;;;;;;34.83;16.57;;;;;;;;;;1719015;82;21144;-48
2022/11/21 07:56:19;;;;;;;33.53;17.40;;;;;;;;;;1721494;82;21044;-47
2022/11/21 07:58:45;;;;;;;28.60;16.73;;;;;;;;;;1718352;82;21714;-47
2022/11/21 08:01:12;;;;;;;27.80;15.77;;;;;;;;;;1717821;82;21963;-48
2022/11/21 08:03:39;;;;;;;34.90;18.57;;;;;;;;;;1717986;82;21032;-47
2022/11/21 08:06:05;;;;;;;29.50;15.77;;;;;;;;;;1715777;82;21014;-48
2022/11/21 08:08:33;;;;;;;32.90;18.90;;;;;;;;;;1720803;82;21049;-47
2022/11/21 08:11:02;;;;;;;33.37;19.97;;;;;;;;;;1714909;82;22571;-48
2022/11/21 08:13:29;;;;;;;37.33;21.20;;;;;;;;;;1718640;81;21891;-48
2022/11/21 08:15:55;;;;;;;38.57;22.03;;;;;;;;;;1718031;82;21354;-47
2022/11/21 08:18:22;;;;;;;31.47;17.70;;;;;;;;;;1719833;82;21025;-47
2022/11/21 08:20:49;;;;;;;28.67;16.57;;;;;;;;;;1721036;82;21503;-46
2022/11/21 08:23:16;;;;;;;24.43;15.90;;;;;;;;;;1725438;82;21037;-45
2022/11/21 08:25:42;;;;;;;23.87;15.03;;;;;;;;;;1715857;82;23359;-45
2022/11/21 08:28:09;;;;;;;23.60;14.87;;;;;;;;;;1717164;82;21266;-46
2022/11/21 08:30:35;;;;;;;25.13;16.30;;;;;;;;;;1701997;82;21555;-47
2022/11/21 08:33:01;;;;;;;28.17;16.40;;;;;;;;;;1702466;82;21098;-49
2022/11/21 08:35:28;;;;;;;25.73;15.13;;;;;;;;;;1700353;82;21077;-46
2022/11/21 08:37:58;;;;;;;30.50;16.17;;;;;;;;;;1694858;82;21840;-49
2022/11/21 08:40:25;;;;;;;29.17;16.90;;;;;;;;;;1696154;82;21527;-46
2022/11/21 08:42:58;;;;;;;29.67;16.47;;;;;;;;;;1699583;82;21232;-46
2022/11/21 08:45:24;;;;;;;33.47;18.60;;;;;;;;;;1651344;85;21555;-47
2022/11/21 08:47:52;;;;;;;32.30;17.23;;;;;;;;;;1708553;82;21427;-47
2022/11/21 08:50:18;;;;;;;31.13;17.63;;;;;;;;;;1702530;82;21787;-47
2022/11/21 08:52:45;;;;;;;39.73;21.97;;;;;;;;;;1703562;82;21615;-47
2022/11/21 08:55:11;;;;;;;36.67;18.33;;;;;;;;;;1705306;82;21077;-46
2022/11/21 08:57:38;;;;;;;41.77;19.17;;;;;;;;;;1707448;82;21065;-47
2022/11/21 09:00:06;;;;;;;44.70;20.87;;;;;;;;;;1677122;83;21049;-46
2022/11/21 09:02:32;;;;;;;40.17;21.27;;;;;;;;;;1693160;82;21797;-47
2022/11/21 09:04:58;;;;;;;35.87;21.10;;;;;;;;;;1701419;82;21068;-48
2022/11/21 09:10:32;;;;;;;44.83;21.43;;;;;;;0.40;100.00;99208.77;1787417;78;27370;-47
2022/11/21 09:12:58;;;;;;;41.83;22.00;;;;;;;0.43;100.00;99217.09;1766919;79;21212;-46
2022/11/21 09:18:13;;;;;;;38.03;21.17;;;;;;;0.23;100.00;99209.03;1767875;79;21065;-46
2022/11/21 09:20:41;;;;;;;38.80;21.27;;;;;;;0.18;100.00;99218.80;1767822;79;21068;-46
2022/11/21 09:23:10;;;;;;;36.20;21.07;;;;;;;0.21;100.00;99227.15;1766138;79;21072;-48
2022/11/21 09:25:38;;;;;;;40.43;21.30;;;;;;;0.25;100.00;99224.45;1764593;79;21068;-48
2022/11/21 09:28:07;;;;;;;35.60;19.50;;;;;;;0.30;100.00;99230.53;1766276;79;21824;-47
2022/11/21 09:30:34;;;;;;;32.60;19.07;;;;;;;0.34;100.00;99235.34;1764991;78;21803;-46
2022/11/21 09:33:02;;;;;;;33.00;18.00;;;;;;;0.40;100.00;99234.36;1763668;79;21037;-47
2022/11/21 11:16:22;;;;;;;40.37;20.03;;;;;;;;;;1772782;78;27383;-49
2022/11/21 11:18:57;;;;;;;35.80;19.87;;;;;;;;;;1738117;80;21073;-47
2022/11/21 11:21:44;;;;;;;28.57;16.13;;;;;;;;;;1737586;80;21811;-48
2022/11/21 11:24:14;;;;;;;26.07;14.37;;;;;;;;;;1740408;80;21077;-46
2022/11/21 11:26:50;;;;;;;23.30;14.07;;;;;;;;;;1741512;80;21299;-48
2022/11/21 11:29:18;;;;;;;25.03;14.03;;;;;;;;;;1738779;80;21183;-48
2022/11/21 11:31:57;;;;;;;17.80;10.93;;;;;;;;;;1754056;80;21026;-46
2022/11/21 11:34:27;;;;;;;15.60;10.23;;;;;;;;;;1744737;80;21029;-46
2022/11/21 11:36:57;;;;;;;20.17;11.20;;;;;;;;;;1738868;80;21021;-46
2022/11/21 11:39:41;;;;;;;21.17;11.47;;;;;;;;;;1744866;80;21100;-46
2022/11/21 11:48:14;;;;;;;16.90;10.20;;;;;;;;;;1739058;80;24132;-48
2022/11/21 11:50:48;;;;;;;16.73;9.80;;;;;;;;;;1743304;80;21267;-46
2022/11/21 11:53:22;;;;;;;16.47;9.63;;;;;;;;;;1737775;80;21534;-48
2022/11/21 11:55:58;;;;;;;13.60;8.23;;;;;;;;;;1742135;80;21058;-47
2022/11/21 11:58:27;;;;;;;15.90;9.53;;;;;;;;;;1744015;80;21065;-46
2022/11/21 12:01:14;;;;;;;10.10;7.13;;;;;;;;;;1741604;80;21824;-48
2022/11/21 12:03:44;;;;;;;10.43;6.33;;;;;;;;;;1740325;80;21747;-47
2022/11/21 12:06:16;;;;;;;11.07;6.50;;;;;;;;;;1723110;80;21066;-47
2022/11/21 12:08:47;;;;;;;5.73;4.63;;;;;;;;;;1704639;80;21057;-47
2022/11/21 12:15:47;;;;;;;5.27;3.07;;;;;;;;;;1724243;80;21909;-48
2022/11/21 12:16:42;;;;;;;5.77;2.43;;;;;;;;;;1719852;80;21124;-48
2022/11/21 12:19:12;;;;;;;2.97;2.33;;;;;;;;;;1719764;80;21136;-47
2022/11/21 12:21:38;;;;;;;3.63;1.73;;;;;;;;;;1720118;80;21124;-51
2022/11/21 12:24:07;;;;;;;2.63;1.67;;;;;;;;;;1717792;80;21053;-50
2022/11/21 12:26:53;;;;;;;3.37;2.17;;;;;;;;;;1699055;81;21828;-50
2022/11/21 12:29:53;;;;;;;3.83;2.03;;;;;;;;;;1718677;80;21104;-48
2022/11/21 12:32:34;;;;;;;3.90;1.80;;;;;;;;;;1721611;80;21042;-46
2022/11/21 12:35:05;;;;;;;3.03;1.70;;;;;;;;;;1723523;80;21480;-49
2022/11/21 12:38:08;;;;;;;3.93;3.10;;;;;;;;;;1719477;80;21065;-48
2022/11/21 12:40:47;;;;;;;3.93;2.70;;;;;;;;;;1686977;82;21827;-48
2022/11/21 12:43:23;;;;;;;2.00;1.67;;;;;;;;;;1685175;82;21323;-46
2022/11/21 12:45:54;;;;;;;4.50;2.80;;;;;;;;;;1721613;80;21090;-46
2022/11/21 12:54:30;;;;;;;3.30;2.23;;;;;;;;;;1718128;80;23411;-48
2022/11/21 12:57:14;;;;;;;2.23;1.63;;;;;;;;;;1718070;80;21077;-47
2022/11/21 13:00:03;;;;;;;3.13;1.87;;;;;;;;;;1718483;80;21082;-48
2022/11/21 13:02:33;;;;;;;3.30;1.90;;;;;;;;;;1730777;80;21053;-45
2022/11/21 13:05:00;;;;;;;2.67;1.50;;;;;;;;;;1722043;80;21049;-47
2022/11/21 13:07:28;;;;;;;2.77;1.20;;;;;;;;;;1721551;80;22557;-48
2022/11/21 13:09:56;;;;;;;2.80;1.20;;;;;;;;;;1719675;80;21097;-47
2022/11/21 13:12:29;;;;;;;2.17;1.20;;;;;;;;;;1726564;80;21045;-46
2022/11/21 13:15:04;;;;;;;2.00;1.10;;;;;;;;;;1723156;80;21125;-47
2022/11/21 13:17:40;;;;;;;3.33;1.47;;;;;;;;;;1726959;80;21104;-48
2022/11/21 13:20:26;;;;;;;1.63;1.17;;;;;;;;;;1727128;80;21950;-46
2022/11/21 13:22:55;;;;;;;1.20;1.00;;;;;;;;;;1723611;80;21573;-48
2022/11/21 13:25:39;;;;;;;2.20;1.20;;;;;;;;;;1724226;80;21439;-48
2022/11/21 13:28:18;;;;;;;2.35;1.32;;;;;;;;;;1732428;80;21041;-48
2022/11/21 13:30:48;;;;;;;1.83;1.30;;;;;;;;;;1726718;80;21041;-49
2022/11/21 13:33:35;;;;;;;2.37;1.47;;;;;;;;;;1727773;80;21844;-48
2022/11/21 13:36:10;;;;;;;2.57;1.30;;;;;;;;;;1726989;80;21085;-48
2022/11/21 13:38:56;;;;;;;1.63;1.03;;;;;;;;;;1726020;80;21132;-47
2022/11/21 13:44:34;;;;;;;1.57;1.00;;;;;;;;;;1725189;80;20485;-50
2022/11/21 13:47:14;;;;;;;3.07;1.60;;;;;;;;;;1729910;80;21841;-47
2022/11/21 13:50:08;;;;;;;3.03;1.23;;;;;;;;;;1727431;80;21344;-49
2022/11/21 13:52:59;;;;;;;4.37;3.40;;;;;;;;;;1676309;83;21096;-48
2022/11/21 13:55:49;;;;;;;2.73;1.30;;;;;;;;;;1731136;80;21085;-49
2022/11/21 13:58:39;;;;;;;3.97;1.37;;;;;;;;;;1730150;80;21537;-48
2022/11/21 14:01:12;;;;;;;3.13;1.23;;;;;;;;;;1723866;80;21914;-48
2022/11/21 14:03:58;;;;;;;1.77;0.93;;;;;;;;;;1728709;80;21090;-49
2022/11/21 14:06:36;;;;;;;1.30;0.80;;;;;;;;;;1737327;80;21549;-47
2022/11/21 14:09:08;;;;;;;1.80;0.80;;;;;;;;;;1721057;80;21093;-46
2022/11/21 14:11:47;;;;;;;1.30;0.80;;;;;;;;;;1730942;80;21574;-47
2022/11/21 14:14:11;;;;;;;1.00;0.70;;;;;;;;;;1734125;80;21791;-50
2022/11/21 14:16:41;;;;;;;1.23;0.80;;;;;;;;;;1701066;80;21113;-48
2022/11/21 14:19:12;;;;;;;1.53;1.03;;;;;;;;;;1755141;80;21410;-49
2022/11/21 14:21:39;;;;;;;1.40;0.80;;;;;;;;;;1715464;80;21076;-50
2022/11/21 14:24:17;;;;;;;2.23;1.10;;;;;;;;;;1729548;80;21105;-49
2022/11/21 14:26:46;;;;;;;1.13;0.70;;;;;;;;;;1733354;80;21880;-49
2022/11/21 14:29:26;;;;;;;2.47;1.13;;;;;;;;;;1735074;80;21075;-48
2022/11/21 14:31:53;;;;;;;2.03;1.27;;;;;;;;;;1747439;80;21042;-48
2022/11/21 14:34:29;;;;;;;3.30;1.60;;;;;;;;;;1746230;80;21096;-49
2022/11/21 14:36:57;;;;;;;2.43;0.90;;;;;;;;;;1731408;80;21632;-49
2022/11/21 14:39:26;;;;;;;3.13;1.37;;;;;;;;;;1739566;80;22631;-48
2022/11/21 14:41:56;;;;;;;5.23;1.87;;;;;;;;;;1736145;80;21060;-48
2022/11/21 14:44:23;;;;;;;2.60;1.53;;;;;;;;;;1739117;80;21491;-48
2022/11/21 14:46:50;;;;;;;2.00;1.07;;;;;;;;;;1747345;80;21033;-49
2022/11/21 14:49:19;;;;;;;4.33;1.33;;;;;;;;;;1746827;80;21084;-52
2022/11/21 14:52:04;;;;;;;4.53;1.40;;;;;;;;;;1747419;80;22547;-50
2022/11/21 14:54:34;;;;;;;5.03;1.70;;;;;;;;;;1749718;80;21080;-49
2022/11/21 14:57:03;;;;;;;1.10;0.60;;;;;;;;;;1734474;80;21107;-49
2022/11/21 14:59:31;;;;;;;2.13;0.83;;;;;;;;;;1716618;81;21041;-49
2022/11/21 15:02:03;;;;;;;4.20;0.77;;;;;;;;;;1738329;80;21526;-49
2022/11/21 15:04:35;;;;;;;2.30;1.10;;;;;;;;;;1731817;80;22510;-49
2022/11/21 15:07:01;;;;;;;4.83;0.80;;;;;;;;;;1734036;80;21558;-50
2022/11/21 15:09:28;;;;;;;4.33;0.80;;;;;;;;;;1736559;80;21526;-49
2022/11/21 15:12:08;;;;;;;5.07;1.37;;;;;;;;;;1732228;80;21060;-50
2022/11/21 15:14:44;;;;;;;2.43;1.10;;;;;;;;;;1732995;80;21689;-49
2022/11/21 15:17:14;;;;;;;3.87;1.60;;;;;;;;;;1723129;80;21559;-50
2022/11/21 15:19:40;;;;;;;5.67;1.70;;;;;;;;;;1726785;80;21014;-51
2022/11/21 15:22:10;;;;;;;8.03;2.53;;;;;;;;;;1728610;80;21120;-51
2022/11/21 15:24:42;;;;;;;6.00;1.37;;;;;;;;;;1724655;80;21269;-50
2022/11/21 15:28:56;;;;;;;4.43;1.47;;;;;;;0.73;100.00;98606.03;1775216;78;27361;-50
2022/11/21 15:31:23;;;;;;;5.83;1.83;;;;;;;0.71;100.00;98611.37;1750442;80;21003;-49
2022/11/21 15:34:02;;;;;;;3.07;0.70;;;;;;;0.72;100.00;98602.52;1747371;80;21861;-49
2022/11/21 15:36:29;;;;;;;3.40;0.90;;;;;;;0.70;100.00;98590.22;1749737;80;21033;-50
2022/11/21 15:39:05;;;;;;;3.23;0.97;;;;;;;0.62;100.00;98651.50;1745991;80;21096;-50
2022/11/21 15:41:33;;;;;;;2.27;0.77;;;;;;;0.62;100.00;98578.51;1743918;80;21057;-50
2022/11/21 15:44:06;;;;;;;2.00;0.77;;;;;;;0.59;100.00;98566.70;1744849;80;21081;-50
2022/11/21 18:33:24;;;;;;;6.57;1.50;;;;;;;0.63;100.00;98335.30;1787024;78;27375;-48
2022/11/21 23:15:09;;;;;;;0.80;0.40;;;;;;;0.40;100.00;98376.63;1773757;78;27843;-49
2022/11/21 23:17:37;;;;;;;1.17;0.40;;;;;;;0.35;100.00;98386.00;1746911;80;21056;-48
2022/11/21 23:20:04;;;;;;;1.30;0.47;;;;;;;0.32;100.00;98386.98;1747049;80;21846;-51
2022/11/21 23:22:31;;;;;;;0.70;0.40;;;;;;;0.31;100.00;98387.02;1753266;80;21132;-48
2022/11/21 23:24:59;;;;;;;1.23;0.40;;;;;;;0.26;100.00;98384.48;1750507;80;21734;-49
2022/11/21 23:27:25;;;;;;;0.63;0.40;;;;;;;0.25;100.00;98385.88;1752631;80;21528;-50
2022/11/21 23:29:52;;;;;;;1.63;0.60;;;;;;;0.24;100.00;98386.34;1746915;80;21490;-48
2022/11/21 23:32:18;;;;;;;0.60;0.40;;;;;;;0.21;100.00;98391.70;1711710;81;21946;-47
2022/11/21 23:34:45;;;;;;;1.07;0.50;;;;;;;0.23;100.00;98404.45;1697583;82;21074;-47
2022/11/21 23:37:12;;;;;;;0.93;0.40;;;;;;;0.24;100.00;98397.38;1705078;82;21554;-48
2022/11/21 23:39:39;;;;;;;0.60;0.43;;;;;;;0.25;100.00;98396.02;1709503;82;21630;-50
2022/11/21 23:42:05;;;;;;;0.47;0.37;;;;;;;0.25;100.00;98403.95;1707058;82;21045;-50
2022/11/21 23:44:33;;;;;;;0.47;0.40;;;;;;;0.26;100.00;98406.98;1706967;82;21563;-48
2022/11/21 23:47:00;;;;;;;0.43;0.40;;;;;;;0.28;100.00;98410.47;1699175;82;21602;-47
2022/11/21 23:49:26;;;;;;;0.43;0.30;;;;;;;0.30;100.00;98413.08;1711759;82;21535;-50
2022/11/21 23:51:53;;;;;;;0.70;0.40;;;;;;;0.31;100.00;98413.48;1701166;82;21645;-50
2022/11/21 23:54:20;;;;;;;3.17;0.90;;;;;;;0.32;100.00;98415.23;1702508;82;21046;-48
2022/11/21 23:56:47;;;;;;;0.80;0.40;;;;;;;0.33;100.00;98427.10;1701978;82;21895;-48
2022/11/21 23:59:14;;;;;;;0.60;0.40;;;;;;;0.35;100.00;98427.03;1703550;82;21149;-48
